Time;durP1;ratioP1;P1;durP2;ratioP2;P2;SDS_P1;SDS_P2;PMS_P1;PMS_P2;Temp;Humidity;BMP_temperature;BMP_pressure;BME280_temperature;BME280_humidity;BME280_pressure;Samples;Min_cycle;Max_cycle;Signal;HPM_P1;HPM_P2
2022/01/13 00:00:38;;;;;;;;;18.25;17.00;;;;;5.85;72.36;103802.97;6242567;22;45467;-83
2022/01/13 00:03:09;;;;;;;;;23.00;18.50;;;;;5.90;72.79;103821.59;6216986;22;45431;-81
2022/01/13 00:05:37;;;;;;;;;21.75;21.75;;;;;5.82;72.75;103807.13;6216667;22;46141;-83
2022/01/13 00:08:19;;;;;;;;;23.25;21.50;;;;;5.77;72.67;103809.41;6216164;22;45459;-83
2022/01/13 00:10:47;;;;;;;;;32.50;24.25;;;;;5.80;73.22;103816.56;6243312;22;45764;-82
2022/01/13 00:13:23;;;;;;;;;27.00;24.25;;;;;5.80;73.22;103816.56;6217238;22;45470;-83
2022/01/13 00:19:20;;;;;;;;;21.25;19.25;;;;;5.87;73.47;103824.91;6245647;22;45415;-81
2022/01/13 00:22:17;;;;;;;;;32.50;23.25;;;;;5.81;73.27;103811.44;6245937;22;44780;-82
2022/01/13 00:24:52;;;;;;;;;25.25;21.25;;;;;5.77;73.33;103801.56;6243727;22;46076;-83
2022/01/13 00:27:30;;;;;;;;;22.25;19.25;;;;;5.84;73.48;103800.28;6222525;22;47396;-83
2022/01/13 00:30:00;;;;;;;;;23.25;21.00;;;;;5.85;73.18;103813.44;6226721;22;45201;-82
2022/01/13 00:32:34;;;;;;;;;27.75;22.50;;;;;5.94;73.10;103823.66;6221492;22;45569;-82
2022/01/13 00:35:03;;;;;;;;;22.00;20.75;;;;;5.93;73.29;103825.38;6219724;22;45440;-81
2022/01/13 00:37:41;;;;;;;;;22.00;20.50;;;;;5.85;73.14;103804.69;6218094;22;47256;-82
2022/01/13 00:40:12;;;;;;;;;29.00;25.75;;;;;5.83;73.13;103798.50;6216369;22;45496;-83
2022/01/13 00:42:42;;;;;;;;;29.25;21.25;;;;;5.90;73.50;103817.25;6244148;22;45469;-82
2022/01/13 00:45:13;;;;;;;;;24.75;21.25;;;;;5.84;72.76;103800.28;6216898;22;45610;-82
2022/01/13 00:47:40;;;;;;;;;19.75;16.50;;;;;5.84;73.20;103798.56;6246243;22;45711;-83
2022/01/13 01:07:15;;;;;;;;;15.50;14.25;;;;;5.81;73.08;103792.25;6060437;23;45458;-85
2022/01/13 01:09:52;;;;;;;;;21.50;18.75;;;;;5.79;73.06;103793.84;6109971;22;45554;-84
2022/01/13 01:12:24;;;;;;;;;18.25;14.50;;;;;5.68;73.45;103790.53;6248904;22;45406;-84
2022/01/13 01:14:57;;;;;;;;;26.25;19.50;;;;;5.75;72.96;103806.72;6221552;22;45094;-85
2022/01/13 01:17:29;;;;;;;;;23.75;18.00;;;;;5.62;73.13;103787.53;6249340;22;45295;-84
2022/01/13 01:20:06;;;;;;;;;24.75;21.75;;;;;5.63;73.62;103790.22;6222014;22;45169;-84
2022/01/13 01:23:09;;;;;;;;;19.50;18.25;;;;;5.76;73.77;103812.84;6221296;22;46359;-84
2022/01/13 01:25:43;;;;;;;;;19.50;16.50;;;;;5.77;73.62;103808.53;6242725;22;45138;-84
2022/01/13 01:28:15;;;;;;;;;17.00;16.25;;;;;5.81;73.45;103813.16;6220897;22;45319;-84
2022/01/13 01:30:46;;;;;;;;;17.00;16.50;;;;;5.65;73.75;103772.94;6248645;22;45276;-85
2022/01/13 01:33:15;;;;;;;;;19.25;16.75;;;;;5.82;73.62;103808.03;6248282;22;45367;-85
2022/01/13 01:35:41;;;;;;;;;18.25;15.50;;;;;5.73;73.63;103792.66;6249598;22;45439;-86
2022/01/13 01:38:09;;;;;;;;;21.00;15.75;;;;;5.62;73.91;103785.81;6222034;22;45308;-85
2022/01/13 01:40:37;;;;;;;;;24.25;19.00;;;;;5.72;73.59;103798.69;6221968;22;45395;-84
2022/01/13 01:43:11;;;;;;;;;18.00;14.00;;;;;5.74;73.80;103807.50;6221571;22;47991;-85
2022/01/13 01:45:44;;;;;;;;;20.25;15.50;;;;;5.66;73.62;103787.81;6222461;22;45225;-85
2022/01/13 01:48:19;;;;;;;;;20.25;16.00;;;;;5.65;73.57;103792.97;6250738;22;45370;-85
2022/01/13 01:50:55;;;;;;;;;26.50;17.50;;;;;5.68;73.43;103809.72;6221766;22;45358;-84
2022/01/13 01:53:24;;;;;;;;;17.75;16.00;;;;;5.74;73.65;103820.59;6248975;22;45222;-83
2022/01/13 01:55:54;;;;;;;;;12.00;11.00;;;;;5.70;73.62;103809.84;6221492;22;45233;-85
2022/01/13 01:58:27;;;;;;;;;12.75;9.00;;;;;5.78;73.61;103815.59;6249526;22;45348;-84
2022/01/13 02:01:00;;;;;;;;;12.25;9.50;;;;;5.60;73.27;103783.91;6221901;22;45292;-85
2022/01/13 02:03:30;;;;;;;;;14.00;12.25;;;;;5.72;73.37;103808.22;6222185;22;45517;-84
2022/01/13 02:06:01;;;;;;;;;12.00;10.75;;;;;5.59;73.03;103790.84;6222252;22;45186;-84
2022/01/13 02:08:36;;;;;;;;;16.50;13.25;;;;;5.72;73.36;103816.06;6249282;22;45293;-85
2022/01/13 02:11:02;;;;;;;;;12.00;11.50;;;;;5.70;73.08;103820.31;6218870;22;45494;-85
2022/01/13 02:13:33;;;;;;;;;16.00;13.25;;;;;5.69;73.12;103821.09;6221628;22;47127;-85
2022/01/13 02:16:16;;;;;;;;;13.75;10.75;;;;;5.66;73.00;103832.25;6222236;22;45838;-85
2022/01/13 02:18:50;;;;;;;;;8.00;7.00;;;;;5.39;73.05;103801.66;6247375;22;45234;-84
2022/01/13 02:21:19;;;;;;;;;10.25;10.00;;;;;5.50;73.50;103829.41;6248918;22;45173;-84
2022/01/13 02:23:49;;;;;;;;;8.00;8.00;;;;;5.54;73.46;103847.13;6221304;22;46952;-84
2022/01/13 02:26:17;;;;;;;;;12.25;11.25;;;;;5.38;73.43;103819.06;6221796;22;45135;-84
2022/01/13 02:28:51;;;;;;;;;11.75;10.00;;;;;5.40;73.35;103824.38;6221597;22;45203;-84
2022/01/13 02:31:21;;;;;;;;;11.50;8.25;;;;;5.42;73.25;103833.22;6221655;22;45138;-84
2022/01/13 02:33:47;;;;;;;;;16.25;13.00;;;;;5.33;73.15;103814.34;6249027;22;45331;-84
2022/01/13 02:36:23;;;;;;;;;11.50;10.00;;;;;5.39;73.48;103823.47;6220951;22;45347;-85
2022/01/13 02:39:18;;;;;;;;;13.75;12.75;;;;;5.41;73.36;103818.38;6221506;22;45415;-84
2022/01/13 02:41:46;;;;;;;;;14.00;14.00;;;;;5.37;73.55;103809.41;6247036;22;45473;-84
2022/01/13 02:44:16;;;;;;;;;12.00;10.25;;;;;5.41;73.62;103824.50;6248584;22;45327;-84
2022/01/13 02:49:14;;;;;;;;;14.75;9.75;;;;;5.36;73.30;103827.59;6249214;22;45296;-84
2022/01/13 02:51:49;;;;;;;;;10.75;10.75;;;;;5.16;73.37;103793.22;6221739;22;45463;-84
2022/01/13 02:54:19;;;;;;;;;8.50;5.00;;;;;5.14;73.91;103786.97;6248885;22;46250;-84
2022/01/13 02:56:52;;;;;;;;;15.25;12.25;;;;;5.15;73.71;103794.00;6248146;22;45172;-84
2022/01/13 02:59:48;;;;;;;;;12.00;11.25;;;;;5.12;73.70;103796.41;6220618;22;45449;-83
2022/01/13 03:02:30;;;;;;;;;14.50;14.50;;;;;5.21;73.82;103809.16;6248837;22;45497;-84
2022/01/13 03:05:01;;;;;;;;;14.50;12.00;;;;;5.17;73.92;103804.56;6221777;22;47891;-84
2022/01/13 03:07:33;;;;;;;;;14.25;12.50;;;;;5.14;73.76;103799.13;6248982;22;45275;-84
2022/01/13 03:10:01;;;;;;;;;10.75;7.50;;;;;5.22;74.10;103821.44;6249081;22;45410;-84
2022/01/13 03:12:37;;;;;;;;;16.00;13.25;;;;;5.05;73.89;103792.47;6247859;22;45197;-83
2022/01/13 03:15:17;;;;;;;;;14.00;10.25;;;;;5.13;74.05;103808.63;6220826;22;47282;-84
2022/01/13 03:17:48;;;;;;;;;19.25;15.50;;;;;5.11;74.47;103806.75;6249277;22;45359;-84
2022/01/13 03:20:20;;;;;;;;;14.25;11.50;;;;;5.10;74.20;103813.66;6249075;22;45173;-83
2022/01/13 03:22:48;;;;;;;;;13.50;12.50;;;;;5.12;74.18;103808.56;6221237;22;45609;-84
2022/01/13 03:25:24;;;;;;;;;18.25;15.25;;;;;5.01;74.53;103795.66;6221401;22;46393;-85
2022/01/13 03:28:15;;;;;;;;;10.75;10.75;;;;;5.04;74.50;103800.19;6221395;22;45376;-84
2022/01/13 03:30:45;;;;;;;;;14.75;14.50;;;;;5.07;74.66;103805.63;6248517;22;45199;-84
2022/01/13 03:33:28;;;;;;;;;17.25;14.50;;;;;5.16;75.07;103813.16;6246451;22;45478;-86
2022/01/13 03:36:02;;;;;;;;;11.00;11.00;;;;;4.96;74.41;103790.94;6249400;22;45102;-85
2022/01/13 03:38:31;;;;;;;;;15.00;15.00;;;;;5.08;74.86;103817.91;6221167;22;45208;-84
2022/01/13 03:41:01;;;;;;;;;17.75;15.25;;;;;5.07;74.59;103814.34;6249173;22;45319;-85
2022/01/13 03:43:42;;;;;;;;;20.75;17.25;;;;;5.00;74.66;103812.16;6248549;22;45163;-84
2022/01/13 03:46:11;;;;;;;;;14.50;13.75;;;;;5.03;75.29;103808.84;6220490;22;45528;-83
2022/01/13 03:48:36;;;;;;;;;16.00;14.75;;;;;4.97;75.27;103796.28;6221101;22;45205;-85
2022/01/13 03:51:04;;;;;;;;;15.25;12.25;;;;;4.95;74.97;103789.13;6221841;22;45298;-84
2022/01/13 03:53:44;;;;;;;;;19.75;15.75;;;;;5.15;75.23;103807.03;6249143;22;45173;-84
2022/01/13 03:56:45;;;;;;;;;16.25;16.00;;;;;5.19;75.11;103808.19;6249434;22;45528;-84
2022/01/13 03:59:32;;;;;;;;;18.75;16.00;;;;;5.19;75.29;103806.47;6221116;22;45283;-83
2022/01/13 04:02:02;;;;;;;;;17.00;13.50;;;;;5.20;74.96;103808.25;6220547;22;45337;-85
2022/01/13 04:04:29;;;;;;;;;13.75;10.75;;;;;5.08;74.44;103789.19;6248570;22;45146;-85
2022/01/13 04:07:10;;;;;;;;;17.25;12.25;;;;;5.15;74.37;103808.75;6220618;22;48161;-85
2022/01/13 04:09:38;;;;;;;;;16.25;15.50;;;;;5.13;74.75;103824.31;6247847;22;45129;-85
2022/01/13 04:12:11;;;;;;;;;16.25;14.75;;;;;5.02;74.55;103805.28;6220398;22;45279;-84
2022/01/13 04:14:59;;;;;;;;;11.00;10.25;;;;;5.05;74.63;103795.09;6237429;22;45162;-84
2022/01/13 04:17:38;;;;;;;;;13.75;10.50;;;;;5.09;74.15;103815.38;6248778;22;46318;-84
2022/01/13 04:20:03;;;;;;;;;11.25;11.25;;;;;5.00;73.98;103796.47;6220680;22;45414;-85
2022/01/13 04:22:37;;;;;;;;;18.00;14.00;;;;;5.00;74.40;103800.81;6220764;22;45196;-84
2022/01/13 04:25:12;;;;;;;;;23.50;18.75;;;;;4.97;73.84;103792.72;6220602;22;45438;-83
2022/01/13 04:27:41;;;;;;;;;16.00;14.75;;;;;5.09;73.89;103799.72;6248062;22;46046;-85
2022/01/13 04:32:52;;;;;;;;;12.00;12.00;;;;;5.03;73.94;103803.63;6248410;22;45205;-84
2022/01/13 04:35:25;;;;;;;;;14.75;11.75;;;;;4.77;73.89;103760.97;6248554;22;45226;-85
2022/01/13 04:37:56;;;;;;;;;11.00;10.50;;;;;4.77;74.22;103762.66;6221438;22;46794;-84
2022/01/13 04:40:21;;;;;;;;;14.00;11.75;;;;;4.80;73.99;103776.81;6249868;22;45351;-85
2022/01/13 04:43:02;;;;;;;;;19.25;12.25;;;;;4.79;74.59;103771.50;6221816;22;45346;-85
2022/01/13 04:45:35;;;;;;;;;11.75;10.25;;;;;4.99;74.47;103793.75;6222730;22;45612;-85
2022/01/13 04:48:09;;;;;;;;;12.25;12.25;;;;;4.90;74.47;103778.38;6225616;22;48464;-84
2022/01/13 04:50:40;;;;;;;;;10.00;8.25;;;;;4.92;74.46;103773.22;6227202;22;45787;-84
2022/01/13 04:53:07;;;;;;;;;15.75;12.00;;;;;4.89;74.52;103778.25;6228231;22;45302;-85
2022/01/13 04:55:49;;;;;;;;;11.50;10.25;;;;;4.91;75.20;103790.59;6223578;22;45393;-86
2022/01/13 04:58:25;;;;;;;;;18.00;11.75;;;;;4.80;74.31;103783.75;6250045;22;45430;-86
2022/01/13 05:01:04;;;;;;;;;18.25;11.50;;;;;4.93;74.60;103804.69;6223132;22;46226;-84
2022/01/13 05:03:40;;;;;;;;;12.75;11.00;;;;;4.75;73.85;103769.47;6223840;22;45442;-85
2022/01/13 05:06:21;;;;;;;;;14.75;11.25;;;;;4.80;74.07;103783.75;6223654;22;45229;-85
2022/01/13 05:09:02;;;;;;;;;13.75;11.00;;;;;4.82;74.21;103803.94;6223213;22;47192;-85
2022/01/13 05:11:30;;;;;;;;;16.00;11.00;;;;;4.88;74.41;103802.56;6223033;22;44737;-84
2022/01/13 05:13:56;;;;;;;;;16.00;13.50;;;;;4.95;74.73;103810.03;6250982;22;45312;-86
2022/01/13 05:16:47;;;;;;;;;13.25;10.50;;;;;4.98;74.55;103810.22;6224845;22;45323;-86
2022/01/13 05:19:42;;;;;;;;;9.50;9.50;;;;;5.03;74.39;103814.06;6224909;22;47782;-85
2022/01/13 05:22:20;;;;;;;;;15.00;14.25;;;;;4.97;74.10;103793.66;6251243;22;45166;-85
2022/01/13 05:24:58;;;;;;;;;18.75;15.50;;;;;4.84;74.03;103771.03;6224003;22;45407;-85
2022/01/13 05:27:36;;;;;;;;;14.25;14.25;;;;;4.94;74.08;103793.44;6251462;22;45309;-85
2022/01/13 05:30:29;;;;;;;;;15.75;12.25;;;;;4.81;74.31;103773.44;6224222;22;46904;-85
2022/01/13 05:32:56;;;;;;;;;12.00;10.75;;;;;4.98;74.18;103805.91;6250579;22;45281;-85
2022/01/13 05:35:27;;;;;;;;;13.00;10.50;;;;;4.89;74.15;103789.59;6259617;22;45105;-83
2022/01/13 05:38:01;;;;;;;;;15.25;13.25;;;;;4.96;74.09;103794.44;6238861;22;45236;-82
2022/01/13 05:40:32;;;;;;;;;11.75;9.75;;;;;5.02;74.41;103793.97;6263847;22;45228;-85
2022/01/13 05:43:10;;;;;;;;;11.25;10.25;;;;;4.88;73.68;103764.31;6236816;22;44928;-83
2022/01/13 05:45:44;;;;;;;;;15.75;12.75;;;;;5.06;74.04;103793.38;6236375;22;44731;-84
2022/01/13 05:48:17;;;;;;;;;14.25;14.25;;;;;4.88;73.88;103746.03;6263589;22;44858;-83
2022/01/13 05:50:48;;;;;;;;;11.50;11.50;;;;;4.95;73.45;103766.53;6264789;22;45205;-85
2022/01/13 05:53:15;;;;;;;;;13.25;11.75;;;;;5.15;73.74;103800.91;6236681;22;45126;-85
2022/01/13 05:55:44;;;;;;;;;11.00;11.00;;;;;4.98;73.60;103768.47;6222713;22;45143;-85
2022/01/13 05:58:12;;;;;;;;;12.25;11.00;;;;;5.07;73.41;103784.72;6249560;22;44767;-85
2022/01/13 06:00:41;;;;;;;;;12.50;10.50;;;;;4.94;73.19;103769.03;6222602;22;47027;-85
2022/01/13 06:03:09;;;;;;;;;13.25;10.25;;;;;4.86;73.50;103766.81;6221504;22;45218;-85
2022/01/13 06:05:35;;;;;;;;;14.25;11.25;;;;;4.78;73.47;103769.69;6222234;22;45181;-85
2022/01/13 06:08:01;;;;;;;;;15.25;14.25;;;;;4.83;73.51;103783.97;6222812;22;45403;-85
2022/01/13 06:10:37;;;;;;;;;20.25;14.00;;;;;4.89;73.62;103797.41;6220760;22;47076;-86
2022/01/13 06:13:12;;;;;;;;;10.50;6.25;;;;;4.78;73.56;103782.72;6221296;22;45402;-86
2022/01/13 06:16:00;;;;;;;;;11.75;11.75;;;;;4.83;73.56;103789.19;6220969;22;45336;-86
2022/01/13 06:18:35;;;;;;;;;10.75;10.75;;;;;4.85;73.99;103808.47;6221473;22;45221;-85
2022/01/13 06:21:03;;;;;;;;;9.25;9.25;;;;;4.69;73.77;103779.50;6246045;22;46993;-86
2022/01/13 06:23:28;;;;;;;;;11.50;11.00;;;;;4.62;74.02;103771.25;6221078;22;45203;-86
2022/01/13 06:25:59;;;;;;;;;16.00;12.00;;;;;4.82;73.87;103801.31;6220626;22;45464;-85
2022/01/13 06:28:28;;;;;;;;;16.25;15.00;;;;;4.71;74.36;103767.47;6248403;22;45446;-86
2022/01/13 06:31:09;;;;;;;;;;;;;;;;;;;;;
2022/01/13 06:33:40;;;;;;;;;24.00;15.75;;;;;4.96;73.96;103790.94;6247366;22;71493;-86
2022/01/13 06:37:11;;;;;;;;;17.00;15.00;;;;;4.90;74.00;103774.88;6220704;22;45336;-85
2022/01/13 06:39:51;;;;;;;;;19.25;13.25;;;;;5.01;73.68;103787.84;6209751;22;45609;-86
2022/01/13 06:42:25;;;;;;;;;20.00;15.50;;;;;5.00;73.70;103803.41;6220900;22;47830;-86
2022/01/13 06:44:58;;;;;;;;;18.25;15.50;;;;;4.94;73.67;103790.81;6248076;22;45394;-85
2022/01/13 06:47:34;;;;;;;;;15.50;11.25;;;;;4.86;73.30;103784.16;6248248;22;45246;-85
2022/01/13 06:50:11;;;;;;;;;16.25;14.75;;;;;4.83;73.78;103795.31;6220398;22;45189;-84
2022/01/13 06:52:47;;;;;;;;;15.75;14.25;;;;;4.71;73.76;103778.81;6220329;22;46685;-84
2022/01/13 06:55:25;;;;;;;;;13.50;11.75;;;;;4.70;73.75;103784.81;6219858;22;45441;-83
2022/01/13 06:57:58;;;;;;;;;22.50;15.75;;;;;4.67;73.75;103799.34;6247427;22;45187;-83
2022/01/13 07:00:33;;;;;;;;;16.75;13.75;;;;;4.64;73.36;103800.03;6220224;22;45204;-83
2022/01/13 07:03:05;;;;;;;;;15.00;12.50;;;;;4.66;73.92;103800.16;6219126;22;45645;-85
2022/01/13 07:05:31;;;;;;;;;20.50;18.50;;;;;4.56;74.06;103793.38;6247501;22;45331;-83
2022/01/13 07:07:59;;;;;;;;;25.00;17.25;;;;;4.73;73.92;103816.38;6221270;22;45337;-81
2022/01/13 07:10:24;;;;;;;;;22.25;19.25;;;;;4.74;74.30;103809.44;6247468;22;45430;-83
2022/01/13 07:12:59;;;;;;;;;14.50;12.75;;;;;4.75;74.62;103812.13;6244648;22;46692;-82
2022/01/13 07:15:33;;;;;;;;;16.50;14.75;;;;;4.79;74.02;103823.72;6219652;22;45272;-83
2022/01/13 07:18:08;;;;;;;;;28.00;15.50;;;;;4.60;74.23;103780.69;6247659;22;45307;-83
2022/01/13 07:20:44;;;;;;;;;15.25;14.00;;;;;4.76;73.78;103798.31;6247339;22;45410;-83
2022/01/13 07:23:18;;;;;;;;;16.75;14.00;;;;;4.85;73.76;103817.19;6219081;22;46273;-85
2022/01/13 07:25:45;;;;;;;;;15.75;14.50;;;;;4.73;74.00;103802.38;6219715;22;45335;-83
2022/01/13 07:28:14;;;;;;;;;29.75;18.50;;;;;4.64;73.83;103781.78;6243949;22;45753;-86
2022/01/13 07:30:42;;;;;;;;;15.50;15.00;;;;;4.83;73.83;103807.44;6246748;22;45366;-86
2022/01/13 07:33:11;;;;;;;;;14.75;13.50;;;;;4.67;74.33;103800.25;6247477;22;45495;-84
2022/01/13 07:35:37;;;;;;;;;19.25;17.00;;;;;4.66;74.37;103802.78;6221258;22;45522;-84
2022/01/13 07:38:07;;;;;;;;;16.25;15.50;;;;;4.78;74.14;103829.72;6258921;22;45145;-85
2022/01/13 07:40:34;;;;;;;;;21.00;14.00;;;;;4.68;74.25;103819.41;6258355;22;45289;-86
2022/01/13 07:43:03;;;;;;;;;23.50;16.00;;;;;4.68;74.60;103815.13;6231453;22;46425;-84
2022/01/13 07:45:31;;;;;;;;;20.00;17.75;;;;;4.71;74.46;103819.66;6253502;22;45195;-85
2022/01/13 07:47:57;;;;;;;;;20.75;14.75;;;;;4.66;74.38;103810.59;6219357;22;45451;-85
2022/01/13 07:50:32;;;;;;;;;23.50;20.00;;;;;4.73;74.44;103816.38;6219231;22;45397;-84
2022/01/13 07:53:00;;;;;;;;;22.25;20.25;;;;;4.66;74.32;103797.56;6246967;22;45374;-84
2022/01/13 07:55:28;;;;;;;;;19.75;19.25;;;;;4.71;74.16;103804.91;6245783;22;45195;-85
2022/01/13 07:57:56;;;;;;;;;19.00;17.50;;;;;4.68;74.31;103802.09;6219339;22;45219;-84
2022/01/13 08:00:31;;;;;;;;;19.75;15.75;;;;;4.72;74.67;103808.41;6246413;22;45193;-85
2022/01/13 08:03:05;;;;;;;;;19.50;16.00;;;;;4.71;74.37;103804.00;6246600;22;46277;-85
2022/01/13 08:05:32;;;;;;;;;23.50;19.50;;;;;4.68;74.21;103795.94;6220261;22;45407;-86
2022/01/13 08:08:02;;;;;;;;;21.75;19.00;;;;;4.58;74.14;103764.00;6247628;22;45268;-84
2022/01/13 08:10:33;;;;;;;;;18.50;18.00;;;;;4.81;74.79;103811.66;6247471;22;45166;-85
2022/01/13 08:13:08;;;;;;;;;13.00;11.25;;;;;4.74;74.12;103806.81;6248372;22;47205;-85
2022/01/13 08:15:51;;;;;;;;;;;;;;;;;;;;;
2022/01/13 08:21:11;;;;;;;;;17.00;16.75;;;;;4.57;74.46;103782.13;6248579;22;45404;-85
2022/01/13 08:23:52;;;;;;;;;23.25;20.00;;;;;4.66;74.33;103806.28;6254713;22;47276;-85
2022/01/13 08:26:27;;;;;;;;;18.25;16.00;;;;;4.69;74.16;103809.09;6228993;22;44665;-84
2022/01/13 08:28:52;;;;;;;;;18.25;16.50;;;;;4.69;74.61;103811.72;6226295;22;45286;-85
2022/01/13 08:31:29;;;;;;;;;23.75;18.75;;;;;4.57;74.75;103783.06;6258555;22;45121;-85
2022/01/13 08:33:57;;;;;;;;;19.00;18.75;;;;;4.52;74.33;103784.44;6251579;22;46122;-85
2022/01/13 08:36:32;;;;;;;;;21.75;19.50;;;;;4.67;74.49;103808.09;6222316;22;45364;-84
2022/01/13 08:39:02;;;;;;;;;15.75;15.75;;;;;4.58;74.52;103791.81;6250914;22;45338;-85
2022/01/13 08:41:37;;;;;;;;;17.75;16.00;;;;;4.45;74.63;103765.66;6251996;22;45170;-86
2022/01/13 08:44:05;;;;;;;;;26.50;23.75;;;;;4.62;74.93;103815.63;6248642;22;45709;-85
2022/01/13 08:46:33;;;;;;;;;18.50;16.25;;;;;4.57;75.03;103798.72;6220041;22;45691;-86
2022/01/13 08:49:13;;;;;;;;;24.00;22.25;;;;;4.47;74.56;103774.50;6221038;22;45320;-84
2022/01/13 08:51:44;;;;;;;;;19.25;17.50;;;;;4.49;74.43;103775.47;6238014;22;45480;-84
2022/01/13 08:54:14;;;;;;;;;18.00;14.75;;;;;4.53;74.32;103780.13;6247739;22;45304;-84
2022/01/13 08:56:50;;;;;;;;;28.50;20.25;;;;;4.68;74.53;103814.19;6220053;22;45163;-84
2022/01/13 08:59:18;;;;;;;;;21.00;16.00;;;;;4.58;74.58;103797.03;6247856;22;45526;-84
2022/01/13 09:01:49;;;;;;;;;21.25;20.50;;;;;4.60;74.66;103818.91;6219915;22;45487;-84
2022/01/13 09:04:16;;;;;;;;;25.75;21.75;;;;;4.53;74.81;103806.22;6219836;22;46997;-84
2022/01/13 09:06:47;;;;;;;;;22.00;20.75;;;;;4.49;75.18;103801.56;6220052;22;45407;-85
2022/01/13 09:09:26;;;;;;;;;22.75;18.25;;;;;4.49;75.17;103804.19;6247259;22;45233;-84
2022/01/13 09:12:03;;;;;;;;;28.00;20.50;;;;;4.42;75.24;103792.44;6247012;22;45253;-85
2022/01/13 09:14:33;;;;;;;;;34.75;26.00;;;;;4.62;74.92;103827.72;6220748;22;48082;-83
2022/01/13 09:17:18;;;;;;;;;;;;;;;;;;;;;
2022/01/13 09:20:02;;;;;;;;;23.75;20.00;;;;;4.61;74.85;103812.88;6250932;22;67294;-84
2022/01/13 09:22:33;;;;;;;;;24.75;21.75;;;;;4.54;74.83;103802.81;6247575;22;45176;-84
2022/01/13 09:25:06;;;;;;;;;18.75;15.00;;;;;4.67;74.66;103834.19;6220052;22;46226;-82
2022/01/13 09:27:40;;;;;;;;;22.25;19.00;;;;;4.64;74.48;103844.41;6247537;22;45371;-83
2022/01/13 09:30:12;;;;;;;;;26.50;22.50;;;;;4.67;74.89;103847.22;6248210;22;45415;-82
2022/01/13 09:32:42;;;;;;;;;24.75;17.50;;;;;4.59;74.26;103830.13;6220355;22;45397;-83
2022/01/13 09:35:11;;;;;;;;;27.25;20.25;;;;;4.58;74.82;103823.09;6220048;22;47226;-82
2022/01/13 09:37:41;;;;;;;;;17.50;17.50;;;;;4.76;75.05;103849.59;6219954;22;45226;-82
2022/01/13 09:40:09;;;;;;;;;25.25;20.00;;;;;4.67;74.87;103825.44;6219855;22;45360;-82
2022/01/13 09:42:49;;;;;;;;;;;;;;;;;;;;;
2022/01/13 09:45:34;;;;;;;;;19.75;18.25;;;;;4.91;74.77;103855.88;6243676;22;75148;-83
2022/01/13 09:48:19;;;;;;;;;24.50;21.50;;;;;4.94;74.53;103869.13;6219746;22;45573;-82
2022/01/13 09:50:51;;;;;;;;;21.00;15.00;;;;;4.76;74.04;103818.28;6246789;22;45452;-82
2022/01/13 09:53:44;;;;;;;;;20.75;20.25;;;;;4.86;74.37;103845.13;6219460;22;45331;-83
2022/01/13 09:56:18;;;;;;;;;24.75;19.00;;;;;4.71;74.27;103817.97;6246330;22;45464;-83
2022/01/13 09:58:48;;;;;;;;;22.50;18.75;;;;;4.89;74.01;103846.13;6219152;22;45356;-84
2022/01/13 10:01:19;;;;;;;;;22.00;18.00;;;;;4.95;74.29;103855.31;6218723;22;45162;-82
2022/01/13 10:03:56;;;;;;;;;22.75;19.75;;;;;4.99;73.95;103852.09;6246673;22;45591;-82
2022/01/13 10:06:26;;;;;;;;;26.75;19.50;;;;;4.86;73.95;103826.84;6248188;22;45165;-82
2022/01/13 10:08:51;;;;;;;;;21.00;19.75;;;;;5.13;74.08;103859.97;6244879;22;45865;-83
2022/01/13 10:11:40;;;;;;;;;22.75;19.75;;;;;5.12;73.68;103858.16;6218913;22;45320;-83
2022/01/13 10:17:06;;;;;;;;;23.00;19.50;;;;;5.16;73.41;103852.34;6247208;22;45266;-83
2022/01/13 10:19:35;;;;;;;;;28.00;20.25;;;;;5.27;73.24;103862.75;6232858;22;45367;-83
2022/01/13 10:22:15;;;;;;;;;29.00;24.25;;;;;5.26;73.15;103857.41;6247351;22;45240;-83
2022/01/13 10:24:45;;;;;;;;;22.25;17.00;;;;;5.31;72.55;103862.13;6247807;22;45402;-84
2022/01/13 10:27:27;;;;;;;;;19.75;18.25;;;;;5.09;72.73;103830.13;6219675;22;46757;-84
2022/01/13 10:29:54;;;;;;;;;22.50;19.00;;;;;5.03;72.47;103833.25;6220253;22;45177;-83
2022/01/13 10:32:31;;;;;;;;;27.00;22.00;;;;;5.09;72.46;103862.38;6220636;22;45387;-83
2022/01/13 10:35:14;;;;;;;;;30.00;27.25;;;;;4.99;72.52;103845.97;6219527;22;45214;-82
2022/01/13 10:37:53;;;;;;;;;27.75;20.50;;;;;4.82;72.46;103817.00;6217286;22;48113;-81
2022/01/13 10:40:29;;;;;;;;;18.00;15.00;;;;;4.93;72.25;103840.31;6244950;22;45489;-81
2022/01/13 10:45:50;;;;;;;;;19.25;17.25;;;;;4.99;72.65;103849.47;6246687;22;45162;-84
2022/01/13 10:48:35;;;;;;;;;22.25;16.75;;;;;4.80;72.83;103825.50;6246982;22;46456;-82
2022/01/13 10:51:12;;;;;;;;;22.25;20.25;;;;;4.82;72.34;103842.19;6246936;22;45410;-83
2022/01/13 10:53:52;;;;;;;;;;;;;;;;;;;;;
2022/01/13 10:56:20;;;;;;;;;22.00;20.00;;;;;4.57;73.11;103816.06;6245403;22;72050;-83
2022/01/13 10:58:53;;;;;;;;;21.00;19.00;;;;;4.79;72.85;103855.03;6244795;22;46308;-82
2022/01/13 11:01:19;;;;;;;;;22.50;21.25;;;;;4.80;73.28;103852.50;6245283;22;45436;-84
2022/01/13 11:03:48;;;;;;;;;25.75;24.00;;;;;4.72;72.76;103835.41;6219732;22;45392;-83
2022/01/13 11:06:37;;;;;;;;;27.00;23.25;;;;;4.69;73.04;103821.25;6247008;22;45316;-86
2022/01/13 11:09:21;;;;;;;;;22.00;18.00;;;;;4.79;73.34;103837.66;6219670;22;46777;-85
2022/01/13 11:12:19;;;;;;;;;28.25;23.00;;;;;4.84;73.01;103838.00;6214645;22;45293;-85
2022/01/13 11:18:16;;;;;;;;;27.50;26.50;;;;;4.84;73.13;103832.78;6184706;22;45694;-85
2022/01/13 11:24:03;;;;;;;;;29.25;23.25;;;;;4.79;73.29;103829.84;6219091;22;45205;-84
2022/01/13 11:34:25;;;;;;;;;;;;;;;;;;;;;
2022/01/13 11:36:57;;;;;;;;;22.50;22.25;;;;;4.90;73.23;103806.19;6009195;23;71473;-85
2022/01/13 11:39:44;;;;;;;;;31.75;28.00;;;;;5.06;73.28;103817.78;6150633;23;45440;-86
2022/01/13 11:42:25;;;;;;;;;33.00;27.00;;;;;5.13;73.45;103813.88;6204194;22;45308;-85
2022/01/13 11:45:16;;;;;;;;;38.50;30.50;;;;;5.30;73.12;103815.03;6248343;22;45201;-86
2022/01/13 11:47:48;;;;;;;;;34.75;30.00;;;;;5.22;72.48;103784.88;6221910;22;46041;-84
2022/01/13 11:50:42;;;;;;;;;32.25;27.50;;;;;5.23;72.54;103760.56;6224203;22;45189;-84
2022/01/13 11:53:48;;;;;;;;;;;;;;;;;;;;;
2022/01/13 11:56:34;;;;;;;;;25.50;21.75;;;;;5.33;72.36;103765.59;6224252;22;75131;-84
2022/01/13 11:59:15;;;;;;;;;23.25;19.50;;;;;5.56;71.93;103784.50;6212656;22;45203;-86
2022/01/13 12:02:01;;;;;;;;;;;;;;;;;;;;;
2022/01/13 12:04:34;;;;;;;;;32.00;29.00;;;;;5.58;71.80;103764.59;6245266;22;72671;-84
2022/01/13 12:13:52;;;;;;;;;29.00;24.00;;;;;5.59;70.67;103763.81;6144445;22;45326;-83
2022/01/13 12:16:17;;;;;;;;;33.75;31.50;;;;;5.50;71.37;103762.38;6224083;22;45190;-84
2022/01/13 12:19:35;;;;;;;;;;;;;;;;;;;;;
2022/01/13 12:26:15;;;;;;;;;;;;;;;;;;;;;
2022/01/13 12:29:23;;;;;;;;;28.25;23.50;;;;;5.57;70.71;103753.25;6249053;22;72984;-85
2022/01/13 12:31:57;;;;;;;;;34.75;28.50;;;;;5.65;71.15;103772.06;6220289;22;47497;-84
2022/01/13 12:34:35;;;;;;;;;36.75;29.75;;;;;5.72;71.14;103775.16;6218666;22;45316;-83
2022/01/13 12:37:28;;;;;;;;;38.25;34.25;;;;;5.74;71.11;103746.50;6248052;22;45149;-82
2022/01/13 12:40:24;;;;;;;;;;;;;;;;;;;;;
2022/01/13 12:42:53;;;;;;;;;39.25;36.25;;;;;5.77;70.62;103727.50;6245862;22;74961;-84
2022/01/13 12:45:32;;;;;;;;;32.25;30.00;;;;;5.96;70.59;103757.56;6246588;22;45159;-85
2022/01/13 12:48:11;;;;;;;;;39.25;29.00;;;;;5.99;70.65;103740.25;6219321;22;45363;-86
2022/01/13 12:51:16;;;;;;;;;;;;;;;;;;;;;
2022/01/13 12:53:55;;;;;;;;;;;;;;;;;;;;;
2022/01/13 12:56:32;;;;;;;;;37.50;31.50;;;;;6.04;70.46;103738.84;6246374;22;73159;-86
2022/01/13 12:59:13;;;;;;;;;32.00;24.25;;;;;5.90;70.12;103710.06;6220380;22;45254;-84
2022/01/13 13:01:49;;;;;;;;;36.00;29.00;;;;;5.96;70.19;103714.81;6222745;22;45462;-88
2022/01/13 13:04:23;;;;;;;;;25.50;22.00;;;;;5.87;69.91;103695.91;6223687;22;46764;-87
2022/01/13 13:06:57;;;;;;;;;31.50;28.50;;;;;5.86;69.95;103717.63;6219631;22;45126;-85
2022/01/13 13:09:33;;;;;;;;;36.25;29.50;;;;;5.82;70.52;103713.91;6248417;22;45211;-86